createdAt,value
2019-02-23T00:01:21.541Z,95685.1
2019-02-23T00:06:28.906Z,95716.1
2019-02-23T00:11:15.382Z,95729.1
2019-02-23T00:16:12.068Z,95746.3
2019-02-23T00:21:08.871Z,95772.2
2019-02-23T00:26:05.427Z,95785.1
2019-02-23T00:31:02.056Z,95812.8
2019-02-23T00:35:58.813Z,95841.1
2019-02-23T00:40:55.531Z,95872.4
2019-02-23T00:45:52.167Z,95784.1
2019-02-23T00:50:48.797Z,95911.4
2019-02-23T00:55:45.796Z,95978.9
2019-02-23T01:00:42.590Z,95944.1
2019-02-23T01:05:39.303Z,95957.8
2019-02-23T01:10:35.901Z,95881.7
2019-02-23T01:15:32.539Z,95974.3
2019-02-23T01:20:29.389Z,95906.9
2019-02-23T01:25:25.791Z,96002.5
2019-02-23T01:30:22.465Z,95927.3
2019-02-23T01:35:19.218Z,95928.9
2019-02-23T01:40:15.961Z,95936.7
2019-02-23T01:45:12.643Z,95950.8
2019-02-23T01:50:09.286Z,95947.9
2019-02-23T01:55:06.249Z,95965.5
2019-02-23T02:00:03.032Z,95908.5
2019-02-23T02:04:59.775Z,95968.3
2019-02-23T02:09:56.696Z,95975.9
2019-02-23T02:14:53.746Z,95988.2
2019-02-23T02:19:50.423Z,95997.8
2019-02-23T02:24:46.841Z,96014.2
2019-02-23T02:29:43.796Z,96034.7
2019-02-23T02:34:40.524Z,96039.2
2019-02-23T02:39:37.228Z,96039.6
2019-02-23T02:44:34.219Z,96021
2019-02-23T02:49:30.938Z,96153.1
2019-02-23T02:54:27.664Z,96082.7
2019-02-23T02:59:24.392Z,96088.9
2019-02-23T03:09:17.782Z,96046.7
2019-02-23T03:14:14.582Z,96108.9
2019-02-23T03:19:11.432Z,96115.9
2019-02-23T03:24:08.215Z,96117.2
2019-02-23T03:29:04.839Z,96128
2019-02-23T03:34:01.848Z,96066.3
2019-02-23T03:38:58.592Z,96139.2
2019-02-23T03:43:55.287Z,96137.8
2019-02-23T03:48:52.197Z,96154.2
2019-02-23T03:53:48.908Z,96145.4
2019-02-23T03:58:45.589Z,96126.6
2019-02-23T04:03:42.432Z,96150.8
2019-02-23T04:08:39.259Z,96155.5
2019-02-23T04:13:36.246Z,96155.5
2019-02-23T04:18:33.376Z,96177.7
2019-02-23T04:23:30.242Z,96198.4
2019-02-23T04:28:27.055Z,96203.7
2019-02-23T04:33:23.803Z,96218.9
2019-02-23T04:38:20.268Z,96228.3
2019-02-23T04:43:17.277Z,96232.5
2019-02-23T04:48:13.858Z,96243.9
2019-02-23T04:53:10.920Z,96243.1
2019-02-23T04:58:07.709Z,96250.5
2019-02-23T05:03:04.613Z,96260.3
2019-02-23T05:08:01.244Z,96250.9
2019-02-23T05:12:58.424Z,96258.2
2019-02-23T05:17:55.635Z,96285
2019-02-23T05:22:52.803Z,96377.3
2019-02-23T05:27:49.138Z,96402.7
2019-02-23T05:32:46.525Z,96418.2
2019-02-23T05:37:43.347Z,96320
2019-02-23T05:42:40.831Z,96362
2019-02-23T05:47:37.465Z,96372.8
2019-02-23T05:52:34.177Z,96381.8
2019-02-23T05:57:31.097Z,96392.3
2019-02-23T06:02:27.161Z,96406.3
2019-02-23T06:07:23.893Z,96415.7
2019-02-23T06:12:22.414Z,96413.7
2019-02-23T06:17:18.808Z,96434.5
2019-02-23T06:22:15.393Z,96452.9
2019-02-23T06:27:12.390Z,96455.9
2019-02-23T06:32:09.899Z,96551.9
2019-02-23T06:37:06.523Z,96487.2
2019-02-23T06:42:03.076Z,96487.7
2019-02-23T06:46:59.695Z,96499.5
2019-02-23T06:52:03.921Z,96510.1
2019-02-23T06:56:53.522Z,96505.8
2019-02-23T07:01:50.222Z,96521
2019-02-23T07:06:46.976Z,96521.1
2019-02-23T07:11:43.897Z,96531.2
2019-02-23T07:16:40.554Z,96535
2019-02-23T07:21:37.402Z,96536.1
2019-02-23T07:26:34.557Z,96632.5
2019-02-23T07:31:31.128Z,96549.4
2019-02-23T07:36:27.805Z,96551.7
2019-02-23T07:41:24.739Z,96560.4
2019-02-23T07:46:21.567Z,96569.4
2019-02-23T07:51:18.387Z,96570.2
2019-02-23T07:56:15.888Z,96663.5
2019-02-23T08:01:12.486Z,96566.6
2019-02-23T08:06:09.118Z,96585.4
2019-02-23T08:11:06.033Z,96548.6
2019-02-23T08:16:02.829Z,96698.9
2019-02-23T08:20:59.480Z,96621.8
2019-02-23T08:25:56.044Z,96634.9
2019-02-23T08:30:53.008Z,96649.4
2019-02-23T08:35:49.773Z,96639
2019-02-23T08:40:46.618Z,96652.8
2019-02-23T08:45:43.567Z,96740.7
2019-02-23T08:50:40.724Z,96657.7
2019-02-23T08:55:37.708Z,96669.4
2019-02-23T09:00:34.422Z,96677.6
2019-02-23T09:05:31.283Z,96682.2
2019-02-23T09:10:28.198Z,96698.6
2019-02-23T09:15:24.600Z,96700.3
2019-02-23T09:20:28.495Z,96708.7
2019-02-23T09:25:18.220Z,96702.1
2019-02-23T09:30:15.103Z,96708.8
2019-02-23T09:35:12.114Z,96688.2
2019-02-23T09:40:09.011Z,96730.2
2019-02-23T09:45:05.903Z,96715.7
2019-02-23T09:50:02.743Z,96743
2019-02-23T09:54:59.601Z,96746.4
2019-02-23T09:59:56.311Z,96744
2019-02-23T10:04:52.970Z,96731.8
2019-02-23T10:09:49.810Z,96741.2
2019-02-23T10:14:45.933Z,96732.4
2019-02-23T10:19:41.589Z,96748.4
2019-02-23T10:24:38.209Z,96745.1
2019-02-23T10:29:34.667Z,96838.5
2019-02-23T10:34:31.432Z,96744.6
2019-02-23T10:39:28.219Z,96746.9
2019-02-23T10:44:25.088Z,96746.5
2019-02-23T10:49:21.759Z,96752
2019-02-23T10:54:18.632Z,96688.1
2019-02-23T10:59:15.486Z,96754.8
2019-02-23T11:04:12.128Z,96745.8
2019-02-23T11:09:08.897Z,96754.8
2019-02-23T11:14:05.689Z,96739
2019-02-23T11:19:02.586Z,96741.4
2019-02-23T11:23:59.599Z,96750.7
2019-02-23T11:28:56.526Z,96750.5
2019-02-23T11:33:53.483Z,96752.7
2019-02-23T11:38:50.481Z,96745.1
2019-02-23T11:43:47.378Z,96754.2
2019-02-23T11:48:44.091Z,96692.9
2019-02-23T11:53:41.090Z,96754.9
2019-02-23T11:58:38.111Z,96758.4
2019-02-23T12:03:35.180Z,96769.5
2019-02-23T12:08:31.985Z,96767.1
2019-02-23T12:13:29.186Z,96843.3
2019-02-23T12:18:26.189Z,96848.5
2019-02-23T12:23:23.029Z,96200.3
2019-02-23T12:28:19.963Z,96767.8
2019-02-23T12:33:16.906Z,96769.9
2019-02-23T12:38:13.570Z,96855
2019-02-23T12:43:10.469Z,96853.5
2019-02-23T12:48:07.509Z,96853.3
2019-02-23T12:53:04.388Z,96909.1
2019-02-23T12:58:00.354Z,96778.4
2019-02-23T13:02:57.505Z,96870.8
2019-02-23T13:07:54.771Z,96872.3
2019-02-23T13:12:51.444Z,96788.6
2019-02-23T13:17:48.302Z,96794.1
2019-02-23T13:22:45.012Z,96789.5
2019-02-23T13:27:41.632Z,96765.4
2019-02-23T13:32:38.513Z,96804.9
2019-02-23T13:37:35.361Z,96798
2019-02-23T13:42:32.304Z,96800.7
2019-02-23T13:47:29.482Z,96881.4
2019-02-23T13:52:25.857Z,96809.7
2019-02-23T13:57:22.616Z,96810.7
2019-02-23T14:02:19.478Z,96811.9
2019-02-23T14:07:16.495Z,96816.4
2019-02-23T14:12:13.523Z,96812.3
2019-02-23T14:17:10.699Z,96824.1
2019-02-23T14:22:07.161Z,96826
2019-02-23T14:27:03.874Z,96833.7
2019-02-23T14:32:00.594Z,96831.9
2019-02-23T14:36:57.770Z,96836.9
2019-02-23T14:41:54.300Z,96828.4
2019-02-23T14:46:51.210Z,96845.5
2019-02-23T14:51:48.017Z,96871.6
2019-02-23T14:56:44.749Z,96847
2019-02-23T15:01:43.305Z,96858.7
2019-02-23T15:06:38.100Z,96856.7
2019-02-23T15:11:34.950Z,96851.6
2019-02-23T15:16:31.765Z,96864
2019-02-23T15:21:28.671Z,96872.8
2019-02-23T15:26:24.868Z,96886.6
2019-02-23T15:31:21.625Z,96894.2
2019-02-23T15:36:18.485Z,96905.8
2019-02-23T15:41:15.317Z,96906.8
2019-02-23T15:46:12.446Z,96914.2
2019-02-23T15:51:09.002Z,96916.6
2019-02-23T15:56:06.262Z,97016
2019-02-23T16:01:02.842Z,96925.1
2019-02-23T16:05:59.533Z,96935.6
2019-02-23T16:10:56.606Z,96995.7
2019-02-23T16:15:53.519Z,96946.7
2019-02-23T16:20:50.220Z,96945.3
2019-02-23T16:25:47.110Z,96950
2019-02-23T16:30:44.066Z,96958.8
2019-02-23T16:35:40.940Z,96968.9
2019-02-23T16:40:37.678Z,96968.9
2019-02-23T16:45:34.428Z,96977.9
2019-02-23T16:50:31.041Z,96984.9
2019-02-23T16:55:27.362Z,97000.1
2019-02-23T17:00:24.186Z,96999.2
2019-02-23T17:05:20.992Z,97012.3
2019-02-23T17:10:17.927Z,97003.2
2019-02-23T17:15:14.761Z,97010.7
2019-02-23T17:20:11.553Z,97009.4
2019-02-23T17:25:08.000Z,97009.9
2019-02-23T17:30:04.961Z,97011.3
2019-02-23T17:35:01.551Z,97011.2
2019-02-23T17:39:58.358Z,97021.4
2019-02-23T17:44:55.536Z,97019.3
2019-02-23T17:49:52.414Z,97024
2019-02-23T17:54:49.617Z,96993.8
2019-02-23T17:59:46.497Z,97026.6
2019-02-23T18:04:43.035Z,97017.2
2019-02-23T18:09:40.029Z,97021.6
2019-02-23T18:14:36.856Z,97023.5
2019-02-23T18:19:33.736Z,97019.9
2019-02-23T18:24:30.485Z,97019
2019-02-23T18:29:27.261Z,97028.7
2019-02-23T18:34:24.011Z,97058.4
2019-02-23T18:39:20.822Z,97039.6
2019-02-23T18:44:17.502Z,97046.7
2019-02-23T18:49:14.237Z,97045.9
2019-02-23T18:54:11.123Z,97041.5
2019-02-23T18:59:07.800Z,97043.2
2019-02-23T19:04:04.169Z,97046.7
2019-02-23T19:09:00.948Z,97063.1
2019-02-23T19:13:58.052Z,97066.6
2019-02-23T19:18:55.062Z,97152.7
2019-02-23T19:23:52.054Z,97057.7
2019-02-23T19:28:48.864Z,97066.9
2019-02-23T19:33:45.609Z,97065.6
2019-02-23T19:38:42.436Z,97074.8
2019-02-23T19:43:38.796Z,97072.1
2019-02-23T19:48:35.767Z,97072.5
2019-02-23T19:53:33.262Z,97022
2019-02-23T19:58:29.568Z,97071.4
2019-02-23T20:03:26.546Z,97060.4
2019-02-23T20:08:22.817Z,97053
2019-02-23T20:13:19.252Z,97062.2
2019-02-23T20:18:16.083Z,97065.9
2019-02-23T20:23:13.777Z,97071.2
2019-02-23T20:28:10.641Z,97070.2
2019-02-23T20:33:07.588Z,97074.2
2019-02-23T20:38:04.251Z,97074.2
2019-02-23T20:43:00.933Z,97071.5
2019-02-23T20:47:57.707Z,97069.9
2019-02-23T20:52:54.794Z,97162.8
2019-02-23T20:57:51.679Z,97061.3
2019-02-23T21:02:48.572Z,97061.4
2019-02-23T21:07:45.323Z,97151.8
2019-02-23T21:12:42.026Z,97069.8
2019-02-23T21:17:38.893Z,97066.4
2019-02-23T21:22:35.737Z,97068.1
2019-02-23T21:27:32.572Z,96718
2019-02-23T21:32:29.198Z,97054.8
2019-02-23T21:37:25.941Z,97050.5
2019-02-23T21:42:22.772Z,97046.1
2019-02-23T21:47:19.729Z,97015.5
2019-02-23T21:52:16.548Z,97054.1
2019-02-23T21:57:21.686Z,97057.3
2019-02-23T22:02:09.923Z,97140
2019-02-23T22:07:06.675Z,97057.5
2019-02-23T22:12:03.547Z,97046.6
2019-02-23T22:17:00.330Z,97041.1
2019-02-23T22:21:57.143Z,97040.7
2019-02-23T22:26:53.948Z,97043.4
2019-02-23T22:31:50.910Z,97031.4
2019-02-23T22:36:47.533Z,97042.8
2019-02-23T22:41:49.543Z,97045
2019-02-23T22:46:41.237Z,97049.8
2019-02-23T22:51:38.310Z,97047.9
2019-02-23T22:56:35.116Z,97051.2
2019-02-23T23:01:31.986Z,97057.6
2019-02-23T23:06:28.571Z,97055.5
2019-02-23T23:11:25.314Z,97046.3
2019-02-23T23:16:22.095Z,97038.5
2019-02-23T23:21:18.282Z,97038
2019-02-23T23:26:15.047Z,97055.1
2019-02-23T23:31:11.409Z,97043.3
2019-02-23T23:36:08.304Z,97048.9
2019-02-23T23:41:04.919Z,97053.3
2019-02-23T23:46:01.631Z,97057.8
2019-02-23T23:50:58.715Z,97055.5
